sensor_id;sensor_type;location;lat;lon;timestamp;pressure;altitude;pressure_sealevel;temperature;humidity
39843;BME280;25514;46.764;15.406;2022-09-12T00:00:25;97138.16;;;13.24;73.49
39843;BME280;25514;46.764;15.406;2022-09-12T00:02:54;97139.81;;;13.21;74.12
39843;BME280;25514;46.764;15.406;2022-09-12T00:05:19;97132.00;;;13.20;75.03
39843;BME280;25514;46.764;15.406;2022-09-12T00:07:45;97126.31;;;13.14;74.76
39843;BME280;25514;46.764;15.406;2022-09-12T00:10:10;97127.19;;;13.11;74.32
39843;BME280;25514;46.764;15.406;2022-09-12T00:12:35;97133.09;;;12.97;74.38
39843;BME280;25514;46.764;15.406;2022-09-12T00:15:01;97133.97;;;12.93;74.89
39843;BME280;25514;46.764;15.406;2022-09-12T00:17:26;97136.47;;;12.88;75.97
39843;BME280;25514;46.764;15.406;2022-09-12T00:19:51;97136.66;;;12.81;80.29
39843;BME280;25514;46.764;15.406;2022-09-12T00:22:17;97137.84;;;12.67;84.85
39843;BME280;25514;46.764;15.406;2022-09-12T00:24:42;97133.97;;;12.51;85.68
39843;BME280;25514;46.764;15.406;2022-09-12T00:27:07;97137.34;;;12.43;87.04
39843;BME280;25514;46.764;15.406;2022-09-12T00:29:33;97131.84;;;12.43;87.27
39843;BME280;25514;46.764;15.406;2022-09-12T00:31:58;97125.84;;;12.48;86.61
39843;BME280;25514;46.764;15.406;2022-09-12T00:34:23;97129.13;;;12.43;86.39
39843;BME280;25514;46.764;15.406;2022-09-12T00:36:48;97124.69;;;12.32;87.51
39843;BME280;25514;46.764;15.406;2022-09-12T00:39:14;97120.78;;;12.17;89.04
39843;BME280;25514;46.764;15.406;2022-09-12T00:41:44;97117.91;;;12.08;90.76
39843;BME280;25514;46.764;15.406;2022-09-12T00:49:05;97116.34;;;11.90;92.39
39843;BME280;25514;46.764;15.406;2022-09-12T00:51:32;97114.13;;;11.85;94.16
39843;BME280;25514;46.764;15.406;2022-09-12T00:53:59;97119.59;;;11.85;94.43
39843;BME280;25514;46.764;15.406;2022-09-12T00:56:25;97117.19;;;11.87;92.81
39843;BME280;25514;46.764;15.406;2022-09-12T00:58:57;97119.47;;;11.92;92.01
39843;BME280;25514;46.764;15.406;2022-09-12T01:01:24;97127.91;;;11.98;91.16
39843;BME280;25514;46.764;15.406;2022-09-12T01:03:49;97122.00;;;11.99;91.45
39843;BME280;25514;46.764;15.406;2022-09-12T01:06:17;97121.94;;;12.03;91.20
39843;BME280;25514;46.764;15.406;2022-09-12T01:08:45;97115.50;;;11.93;91.87
39843;BME280;25514;46.764;15.406;2022-09-12T01:11:11;97117.75;;;11.98;91.67
39843;BME280;25514;46.764;15.406;2022-09-12T01:13:37;97119.97;;;12.03;91.61
39843;BME280;25514;46.764;15.406;2022-09-12T01:16:03;97115.81;;;12.12;90.66
39843;BME280;25514;46.764;15.406;2022-09-12T01:21:13;97113.06;;;12.28;87.58
39843;BME280;25514;46.764;15.406;2022-09-12T01:34:30;97116.16;;;12.43;83.59
39843;BME280;25514;46.764;15.406;2022-09-12T01:41:53;97115.34;;;12.00;87.74
39843;BME280;25514;46.764;15.406;2022-09-12T01:50:15;97110.38;;;11.79;91.86
39843;BME280;25514;46.764;15.406;2022-09-12T01:52:41;97114.41;;;11.74;91.08
39843;BME280;25514;46.764;15.406;2022-09-12T01:55:10;97107.22;;;11.80;90.05
39843;BME280;25514;46.764;15.406;2022-09-12T01:58:21;97113.81;;;11.83;89.33
39843;BME280;25514;46.764;15.406;2022-09-12T02:00:26;97110.72;;;11.97;86.77
39843;BME280;25514;46.764;15.406;2022-09-12T02:02:53;97113.72;;;12.03;85.06
39843;BME280;25514;46.764;15.406;2022-09-12T02:05:25;97105.06;;;12.04;83.83
39843;BME280;25514;46.764;15.406;2022-09-12T02:08:26;97107.88;;;12.01;85.08
39843;BME280;25514;46.764;15.406;2022-09-12T02:10:51;97108.50;;;11.92;87.09
39843;BME280;25514;46.764;15.406;2022-09-12T02:13:21;97105.59;;;11.83;88.27
39843;BME280;25514;46.764;15.406;2022-09-12T02:15:50;97097.00;;;11.81;88.70
39843;BME280;25514;46.764;15.406;2022-09-12T02:18:16;97106.44;;;11.80;88.70
39843;BME280;25514;46.764;15.406;2022-09-12T02:20:44;97097.00;;;11.81;88.59
39843;BME280;25514;46.764;15.406;2022-09-12T02:23:11;97100.00;;;11.86;87.46
39843;BME280;25514;46.764;15.406;2022-09-12T02:25:39;97092.66;;;11.83;86.83
39843;BME280;25514;46.764;15.406;2022-09-12T02:28:08;97091.97;;;11.79;86.38
39843;BME280;25514;46.764;15.406;2022-09-12T02:30:38;97090.50;;;11.75;85.91
39843;BME280;25514;46.764;15.406;2022-09-12T02:33:11;97097.22;;;11.74;85.42
39843;BME280;25514;46.764;15.406;2022-09-12T02:35:46;97085.56;;;11.69;85.69
39843;BME280;25514;46.764;15.406;2022-09-12T02:41:09;97093.38;;;11.55;86.90
39843;BME280;25514;46.764;15.406;2022-09-12T02:43:36;97085.66;;;11.49;87.86
39843;BME280;25514;46.764;15.406;2022-09-12T02:46:03;97094.47;;;11.41;89.18
39843;BME280;25514;46.764;15.406;2022-09-12T02:48:30;97091.91;;;11.33;89.73
39843;BME280;25514;46.764;15.406;2022-09-12T02:50:58;97090.34;;;11.32;90.38
39843;BME280;25514;46.764;15.406;2022-09-12T02:53:24;97094.31;;;11.31;89.68
39843;BME280;25514;46.764;15.406;2022-09-12T02:55:49;97086.94;;;11.28;90.24
39843;BME280;25514;46.764;15.406;2022-09-12T02:58:19;97091.22;;;11.29;90.59
39843;BME280;25514;46.764;15.406;2022-09-12T03:03:19;97089.00;;;11.24;91.51
39843;BME280;25514;46.764;15.406;2022-09-12T03:05:56;97087.44;;;11.23;91.13
39843;BME280;25514;46.764;15.406;2022-09-12T03:13:43;97094.28;;;11.15;91.38
39843;BME280;25514;46.764;15.406;2022-09-12T03:26:28;97091.63;;;11.61;85.66
39843;BME280;25514;46.764;15.406;2022-09-12T03:28:55;97090.03;;;11.63;85.31
39843;BME280;25514;46.764;15.406;2022-09-12T03:31:23;97096.88;;;11.55;86.45
39843;BME280;25514;46.764;15.406;2022-09-12T03:33:49;97086.28;;;11.41;88.09
39843;BME280;25514;46.764;15.406;2022-09-12T03:36:25;97092.31;;;11.32;87.95
39843;BME280;25514;46.764;15.406;2022-09-12T03:38:51;97084.69;;;11.23;88.19
39843;BME280;25514;46.764;15.406;2022-09-12T03:41:16;97085.56;;;11.20;87.90
39843;BME280;25514;46.764;15.406;2022-09-12T03:43:41;97087.53;;;11.03;91.89
39843;BME280;25514;46.764;15.406;2022-09-12T03:46:07;97092.19;;;10.86;94.82
39843;BME280;25514;46.764;15.406;2022-09-12T03:48:32;97101.78;;;10.74;96.05
39843;BME280;25514;46.764;15.406;2022-09-12T03:51:01;97095.78;;;10.63;98.43
39843;BME280;25514;46.764;15.406;2022-09-12T03:53:26;97097.47;;;10.57;98.77
39843;BME280;25514;46.764;15.406;2022-09-12T03:55:51;97091.16;;;10.60;98.24
39843;BME280;25514;46.764;15.406;2022-09-12T03:58:17;97092.63;;;10.65;98.52
39843;BME280;25514;46.764;15.406;2022-09-12T04:00:42;97087.84;;;10.69;97.86
39843;BME280;25514;46.764;15.406;2022-09-12T04:03:08;97094.00;;;10.73;97.35
39843;BME280;25514;46.764;15.406;2022-09-12T04:05:34;97104.09;;;10.76;96.02
39843;BME280;25514;46.764;15.406;2022-09-12T04:07:59;97100.19;;;10.77;95.37
39843;BME280;25514;46.764;15.406;2022-09-12T04:10:25;97100.19;;;10.77;94.83
39843;BME280;25514;46.764;15.406;2022-09-12T04:12:50;97101.72;;;10.78;94.33
39843;BME280;25514;46.764;15.406;2022-09-12T04:15:15;97098.56;;;10.79;93.51
39843;BME280;25514;46.764;15.406;2022-09-12T04:17:41;97098.50;;;10.83;92.78
39843;BME280;25514;46.764;15.406;2022-09-12T04:20:06;97101.56;;;10.85;92.04
39843;BME280;25514;46.764;15.406;2022-09-12T04:22:32;97097.13;;;10.91;90.83
39843;BME280;25514;46.764;15.406;2022-09-12T04:24:57;97101.25;;;11.00;90.37
39843;BME280;25514;46.764;15.406;2022-09-12T04:27:22;97098.47;;;11.03;90.28
39843;BME280;25514;46.764;15.406;2022-09-12T04:29:48;97102.28;;;11.06;89.84
39843;BME280;25514;46.764;15.406;2022-09-12T04:32:13;97111.25;;;11.06;89.66
39843;BME280;25514;46.764;15.406;2022-09-12T04:34:39;97107.00;;;11.05;89.37
39843;BME280;25514;46.764;15.406;2022-09-12T04:37:04;97105.03;;;11.06;89.16
39843;BME280;25514;46.764;15.406;2022-09-12T04:39:29;97113.56;;;11.08;89.48
39843;BME280;25514;46.764;15.406;2022-09-12T04:41:55;97109.31;;;11.07;88.71
39843;BME280;25514;46.764;15.406;2022-09-12T04:44:20;97109.66;;;11.09;89.59
39843;BME280;25514;46.764;15.406;2022-09-12T04:46:46;97114.13;;;11.19;87.60
39843;BME280;25514;46.764;15.406;2022-09-12T04:49:12;97112.47;;;11.22;86.43
39843;BME280;25514;46.764;15.406;2022-09-12T04:51:38;97109.69;;;11.25;87.27
39843;BME280;25514;46.764;15.406;2022-09-12T04:54:06;97108.47;;;11.26;87.10
39843;BME280;25514;46.764;15.406;2022-09-12T04:56:32;97113.50;;;11.28;87.30
39843;BME280;25514;46.764;15.406;2022-09-12T04:58:58;97112.75;;;11.27;87.36
39843;BME280;25514;46.764;15.406;2022-09-12T05:01:25;97117.03;;;11.28;86.79
39843;BME280;25514;46.764;15.406;2022-09-12T05:03:50;97117.72;;;11.32;86.15
39843;BME280;25514;46.764;15.406;2022-09-12T05:06:17;97127.03;;;11.35;85.54
39843;BME280;25514;46.764;15.406;2022-09-12T05:08:43;97125.06;;;11.36;85.96
39843;BME280;25514;46.764;15.406;2022-09-12T05:11:12;97123.88;;;11.37;85.60
39843;BME280;25514;46.764;15.406;2022-09-12T05:13:38;97126.09;;;11.42;85.52
39843;BME280;25514;46.764;15.406;2022-09-12T05:16:03;97125.34;;;11.41;85.22
39843;BME280;25514;46.764;15.406;2022-09-12T05:18:30;97123.78;;;11.40;85.54
39843;BME280;25514;46.764;15.406;2022-09-12T05:20:55;97128.41;;;11.43;85.76
39843;BME280;25514;46.764;15.406;2022-09-12T05:23:23;97124.06;;;11.46;85.39
39843;BME280;25514;46.764;15.406;2022-09-12T05:25:49;97130.72;;;11.45;85.80
39843;BME280;25514;46.764;15.406;2022-09-12T05:28:15;97129.19;;;11.44;85.66
39843;BME280;25514;46.764;15.406;2022-09-12T05:30:40;97137.41;;;11.44;85.24
39843;BME280;25514;46.764;15.406;2022-09-12T05:33:05;97137.75;;;11.46;84.93
39843;BME280;25514;46.764;15.406;2022-09-12T05:35:31;97139.63;;;11.49;85.67
39843;BME280;25514;46.764;15.406;2022-09-12T05:37:57;97140.75;;;11.51;85.68
39843;BME280;25514;46.764;15.406;2022-09-12T05:40:22;97136.81;;;11.52;86.55
39843;BME280;25514;46.764;15.406;2022-09-12T05:42:48;97136.81;;;11.52;86.62
39843;BME280;25514;46.764;15.406;2022-09-12T05:45:13;97138.78;;;11.52;87.09
39843;BME280;25514;46.764;15.406;2022-09-12T05:47:39;97139.13;;;11.54;87.75
39843;BME280;25514;46.764;15.406;2022-09-12T05:50:04;97142.53;;;11.58;88.96
39843;BME280;25514;46.764;15.406;2022-09-12T05:52:35;97139.63;;;11.65;90.08
39843;BME280;25514;46.764;15.406;2022-09-12T05:55:00;97135.44;;;11.77;94.88
39843;BME280;25514;46.764;15.406;2022-09-12T05:57:26;97148.44;;;11.90;93.37
39843;BME280;25514;46.764;15.406;2022-09-12T05:59:51;97142.47;;;11.95;92.04
39843;BME280;25514;46.764;15.406;2022-09-12T06:02:17;97145.72;;;12.06;91.02
39843;BME280;25514;46.764;15.406;2022-09-12T06:04:42;97151.41;;;12.28;91.24
39843;BME280;25514;46.764;15.406;2022-09-12T06:07:07;97151.91;;;12.39;90.66
39843;BME280;25514;46.764;15.406;2022-09-12T06:09:33;97150.84;;;12.50;90.66
39843;BME280;25514;46.764;15.406;2022-09-12T06:11:58;97154.41;;;12.63;90.77
39843;BME280;25514;46.764;15.406;2022-09-12T06:14:24;97153.06;;;12.97;89.33
39843;BME280;25514;46.764;15.406;2022-09-12T06:16:50;97154.13;;;13.55;90.33
39843;BME280;25514;46.764;15.406;2022-09-12T06:19:16;97156.75;;;14.19;84.13
39843;BME280;25514;46.764;15.406;2022-09-12T06:21:42;97148.41;;;14.80;82.25
39843;BME280;25514;46.764;15.406;2022-09-12T06:24:07;97148.22;;;15.27;76.47
39843;BME280;25514;46.764;15.406;2022-09-12T06:26:33;97139.91;;;15.99;75.97
39843;BME280;25514;46.764;15.406;2022-09-12T06:28:59;97137.78;;;16.50;71.27
39843;BME280;25514;46.764;15.406;2022-09-12T06:31:28;97139.91;;;16.92;69.35
39843;BME280;25514;46.764;15.406;2022-09-12T06:33:54;97140.66;;;17.45;63.88
39843;BME280;25514;46.764;15.406;2022-09-12T06:36:21;97133.63;;;17.77;66.17
39843;BME280;25514;46.764;15.406;2022-09-12T06:38:52;97141.25;;;18.16;65.28
39843;BME280;25514;46.764;15.406;2022-09-12T06:41:17;97140.38;;;18.48;62.96
39843;BME280;25514;46.764;15.406;2022-09-12T06:43:42;97134.84;;;18.63;63.60
39843;BME280;25514;46.764;15.406;2022-09-12T06:46:08;97131.69;;;18.95;60.98
39843;BME280;25514;46.764;15.406;2022-09-12T06:48:34;97139.66;;;19.37;59.27
39843;BME280;25514;46.764;15.406;2022-09-12T06:51:01;97143.56;;;19.46;56.46
39843;BME280;25514;46.764;15.406;2022-09-12T06:53:27;97134.06;;;19.82;56.76
39843;BME280;25514;46.764;15.406;2022-09-12T06:58:21;97128.56;;;19.88;54.26
39843;BME280;25514;46.764;15.406;2022-09-12T07:00:46;97132.41;;;20.11;57.45
39843;BME280;25514;46.764;15.406;2022-09-12T07:03:11;97134.78;;;20.18;56.39
39843;BME280;25514;46.764;15.406;2022-09-12T07:05:37;97132.47;;;20.37;56.00
39843;BME280;25514;46.764;15.406;2022-09-12T07:08:02;97134.88;;;20.50;54.51
39843;BME280;25514;46.764;15.406;2022-09-12T07:10:27;97129.19;;;20.59;54.76
39843;BME280;25514;46.764;15.406;2022-09-12T07:12:53;97130.13;;;20.77;55.42
39843;BME280;25514;46.764;15.406;2022-09-12T07:15:18;97136.34;;;20.66;55.90
39843;BME280;25514;46.764;15.406;2022-09-12T07:17:43;97132.91;;;20.77;55.40
39843;BME280;25514;46.764;15.406;2022-09-12T07:20:09;97137.31;;;20.89;52.44
39843;BME280;25514;46.764;15.406;2022-09-12T07:22:34;97142.38;;;21.17;52.56
39843;BME280;25514;46.764;15.406;2022-09-12T07:24:59;97151.25;;;21.21;51.45
39843;BME280;25514;46.764;15.406;2022-09-12T07:27:24;97142.53;;;21.08;51.53
39843;BME280;25514;46.764;15.406;2022-09-12T07:29:50;97138.63;;;21.20;52.44
39843;BME280;25514;46.764;15.406;2022-09-12T07:32:15;97146.34;;;21.36;55.35
39843;BME280;25514;46.764;15.406;2022-09-12T07:34:40;97140.66;;;21.51;51.88
39843;BME280;25514;46.764;15.406;2022-09-12T07:37:06;97143.47;;;21.57;51.19
39843;BME280;25514;46.764;15.406;2022-09-12T07:39:31;97138.72;;;21.69;51.58
39843;BME280;25514;46.764;15.406;2022-09-12T07:41:56;97141.13;;;21.82;53.34
39843;BME280;25514;46.764;15.406;2022-09-12T07:44:22;97137.59;;;21.87;53.48
39843;BME280;25514;46.764;15.406;2022-09-12T07:46:49;97148.78;;;21.98;54.00
39843;BME280;25514;46.764;15.406;2022-09-12T07:49:14;97154.59;;;21.95;53.53
39843;BME280;25514;46.764;15.406;2022-09-12T07:51:40;97147.97;;;21.92;52.76
39843;BME280;25514;46.764;15.406;2022-09-12T07:54:08;97150.06;;;22.03;52.71
39843;BME280;25514;46.764;15.406;2022-09-12T07:56:34;97146.78;;;22.04;51.82
39843;BME280;25514;46.764;15.406;2022-09-12T07:59:02;97154.72;;;22.23;52.26
39843;BME280;25514;46.764;15.406;2022-09-12T08:01:28;97153.06;;;22.42;50.22
39843;BME280;25514;46.764;15.406;2022-09-12T08:03:54;97150.09;;;22.69;48.71
39843;BME280;25514;46.764;15.406;2022-09-12T08:06:21;97151.44;;;23.02;48.64
39843;BME280;25514;46.764;15.406;2022-09-12T08:08:50;97152.50;;;23.15;46.67
39843;BME280;25514;46.764;15.406;2022-09-12T08:11:16;97150.44;;;23.22;46.92
39843;BME280;25514;46.764;15.406;2022-09-12T08:13:42;97144.38;;;23.35;45.57
39843;BME280;25514;46.764;15.406;2022-09-12T08:16:09;97147.44;;;23.42;45.43
39843;BME280;25514;46.764;15.406;2022-09-12T08:18:36;97150.19;;;23.54;45.00
39843;BME280;25514;46.764;15.406;2022-09-12T08:21:05;97143.09;;;23.52;43.73
39843;BME280;25514;46.764;15.406;2022-09-12T08:23:30;97149.44;;;23.42;43.81
39843;BME280;25514;46.764;15.406;2022-09-12T08:25:56;97146.91;;;23.55;45.45
39843;BME280;25514;46.764;15.406;2022-09-12T08:28:22;97142.84;;;23.45;45.31
39843;BME280;25514;46.764;15.406;2022-09-12T08:30:48;97143.84;;;23.64;45.54
39843;BME280;25514;46.764;15.406;2022-09-12T08:33:14;97145.34;;;23.88;44.05
39843;BME280;25514;46.764;15.406;2022-09-12T08:35:39;97145.06;;;23.97;42.53
39843;BME280;25514;46.764;15.406;2022-09-12T08:38:04;97136.88;;;24.16;42.33
39843;BME280;25514;46.764;15.406;2022-09-12T08:40:30;97134.31;;;24.30;43.26
39843;BME280;25514;46.764;15.406;2022-09-12T08:43:00;97141.16;;;24.34;42.05
39843;BME280;25514;46.764;15.406;2022-09-12T08:45:47;97134.03;;;24.28;39.90
39843;BME280;25514;46.764;15.406;2022-09-12T08:48:14;97132.50;;;24.38;42.38
39843;BME280;25514;46.764;15.406;2022-09-12T08:50:39;97127.44;;;24.31;40.42
39843;BME280;25514;46.764;15.406;2022-09-12T08:53:12;97129.25;;;24.28;39.49
39843;BME280;25514;46.764;15.406;2022-09-12T08:55:42;97132.69;;;24.51;42.77
39843;BME280;25514;46.764;15.406;2022-09-12T09:00:46;97124.72;;;24.72;40.28
39843;BME280;25514;46.764;15.406;2022-09-12T09:06:02;97122.84;;;24.86;39.72
39843;BME280;25514;46.764;15.406;2022-09-12T09:11:09;97117.19;;;24.98;39.09
39843;BME280;25514;46.764;15.406;2022-09-12T09:16:32;97117.25;;;24.86;39.91
39843;BME280;25514;46.764;15.406;2022-09-12T09:19:00;97122.22;;;25.05;42.19
39843;BME280;25514;46.764;15.406;2022-09-12T09:22:01;97128.00;;;25.12;40.84
39843;BME280;25514;46.764;15.406;2022-09-12T09:24:18;97120.25;;;25.30;39.44
39843;BME280;25514;46.764;15.406;2022-09-12T09:29:18;97117.56;;;25.74;39.86
39843;BME280;25514;46.764;15.406;2022-09-12T09:31:48;97118.22;;;25.61;36.60
39843;BME280;25514;46.764;15.406;2022-09-12T09:34:17;97106.84;;;25.78;39.24
39843;BME280;25514;46.764;15.406;2022-09-12T09:36:46;97111.44;;;25.51;38.80
39843;BME280;25514;46.764;15.406;2022-09-12T09:44:30;97105.56;;;25.54;35.65
39843;BME280;25514;46.764;15.406;2022-09-12T09:46:56;97106.84;;;25.78;39.13
39843;BME280;25514;46.764;15.406;2022-09-12T09:49:22;97104.63;;;25.95;38.83
39843;BME280;25514;46.764;15.406;2022-09-12T09:51:49;97096.09;;;25.82;35.17
39843;BME280;25514;46.764;15.406;2022-09-12T09:54:30;97090.97;;;25.86;35.59
39843;BME280;25514;46.764;15.406;2022-09-12T09:56:57;97087.66;;;25.63;36.10
39843;BME280;25514;46.764;15.406;2022-09-12T09:59:27;97089.69;;;25.62;37.58
39843;BME280;25514;46.764;15.406;2022-09-12T10:01:59;97080.25;;;25.90;38.28
39843;BME280;25514;46.764;15.406;2022-09-12T10:04:29;97083.44;;;25.75;37.24
39843;BME280;25514;46.764;15.406;2022-09-12T10:06:56;97084.44;;;25.78;36.62
39843;BME280;25514;46.764;15.406;2022-09-12T10:09:24;97080.69;;;25.94;38.41
39843;BME280;25514;46.764;15.406;2022-09-12T10:11:50;97068.41;;;26.22;38.20
39843;BME280;25514;46.764;15.406;2022-09-12T10:14:48;97075.06;;;26.38;37.33
39843;BME280;25514;46.764;15.406;2022-09-12T10:19:47;97068.19;;;26.58;38.19
39843;BME280;25514;46.764;15.406;2022-09-12T10:22:17;97065.91;;;26.57;37.65
39843;BME280;25514;46.764;15.406;2022-09-12T10:24:45;97060.13;;;25.92;36.88
39843;BME280;25514;46.764;15.406;2022-09-12T10:27:13;97057.59;;;26.13;38.44
39843;BME280;25514;46.764;15.406;2022-09-12T10:29:41;97049.06;;;25.80;37.84
39843;BME280;25514;46.764;15.406;2022-09-12T10:32:28;97052.59;;;26.06;39.28
39843;BME280;25514;46.764;15.406;2022-09-12T10:35:01;97051.53;;;26.09;37.03
39843;BME280;25514;46.764;15.406;2022-09-12T10:37:32;97045.25;;;25.78;36.52
39843;BME280;25514;46.764;15.406;2022-09-12T10:39:59;97050.19;;;25.91;37.26
39843;BME280;25514;46.764;15.406;2022-09-12T10:45:25;97052.94;;;25.96;38.68
39843;BME280;25514;46.764;15.406;2022-09-12T10:47:54;97047.75;;;26.25;38.97
39843;BME280;25514;46.764;15.406;2022-09-12T10:50:24;97050.19;;;26.34;38.58
39843;BME280;25514;46.764;15.406;2022-09-12T10:52:53;97041.41;;;26.25;36.27
39843;BME280;25514;46.764;15.406;2022-09-12T10:55:21;97053.28;;;26.50;39.04
39843;BME280;25514;46.764;15.406;2022-09-12T11:00:18;97049.13;;;26.76;36.61
39843;BME280;25514;46.764;15.406;2022-09-12T11:05:36;97041.38;;;26.82;37.30
39843;BME280;25514;46.764;15.406;2022-09-12T11:10:46;97036.44;;;27.01;36.04
39843;BME280;25514;46.764;15.406;2022-09-12T11:13:33;97035.19;;;27.16;35.74
39843;BME280;25514;46.764;15.406;2022-09-12T11:16:05;97021.34;;;27.04;36.82
39843;BME280;25514;46.764;15.406;2022-09-12T11:26:25;97024.84;;;26.78;37.08
39843;BME280;25514;46.764;15.406;2022-09-12T11:33:50;97020.78;;;26.60;38.03
39843;BME280;25514;46.764;15.406;2022-09-12T11:41:55;97018.69;;;26.80;37.69
39843;BME280;25514;46.764;15.406;2022-09-12T11:51:40;97006.09;;;26.54;34.43
39843;BME280;25514;46.764;15.406;2022-09-12T11:56:58;97014.63;;;26.62;36.43
39843;BME280;25514;46.764;15.406;2022-09-12T12:02:14;97008.16;;;26.86;37.87
39843;BME280;25514;46.764;15.406;2022-09-12T12:04:53;97005.34;;;26.86;36.46
39843;BME280;25514;46.764;15.406;2022-09-12T12:07:19;97004.69;;;26.80;34.96
39843;BME280;25514;46.764;15.406;2022-09-12T12:09:49;97008.06;;;26.92;38.90
39843;BME280;25514;46.764;15.406;2022-09-12T12:12:20;96998.25;;;26.85;35.47
39843;BME280;25514;46.764;15.406;2022-09-12T12:14:47;96999.00;;;26.85;34.15
39843;BME280;25514;46.764;15.406;2022-09-12T12:17:20;96998.88;;;26.91;35.19
39843;BME280;25514;46.764;15.406;2022-09-12T12:19:46;97005.38;;;26.99;34.82
39843;BME280;25514;46.764;15.406;2022-09-12T12:22:21;96992.03;;;27.05;34.55
39843;BME280;25514;46.764;15.406;2022-09-12T12:32:52;96992.03;;;27.05;34.56
39843;BME280;25514;46.764;15.406;2022-09-12T12:35:41;96986.16;;;26.90;33.13
39843;BME280;25514;46.764;15.406;2022-09-12T12:38:27;96979.63;;;27.01;34.49
39843;BME280;25514;46.764;15.406;2022-09-12T12:40:53;96982.75;;;27.11;35.15
39843;BME280;25514;46.764;15.406;2022-09-12T12:43:38;96978.41;;;27.09;34.25
39843;BME280;25514;46.764;15.406;2022-09-12T12:46:05;96974.44;;;27.18;37.40
39843;BME280;25514;46.764;15.406;2022-09-12T12:48:32;96974.22;;;27.03;34.96
39843;BME280;25514;46.764;15.406;2022-09-12T12:54:01;96971.97;;;27.15;34.76
39843;BME280;25514;46.764;15.406;2022-09-12T12:56:34;96973.06;;;27.12;33.06
39843;BME280;25514;46.764;15.406;2022-09-12T12:59:14;96976.50;;;27.18;33.15
39843;BME280;25514;46.764;15.406;2022-09-12T13:01:59;96979.97;;;27.24;33.45
39843;BME280;25514;46.764;15.406;2022-09-12T13:04:25;96972.81;;;26.96;33.80
39843;BME280;25514;46.764;15.406;2022-09-12T13:06:56;96968.09;;;26.40;33.04
39843;BME280;25514;46.764;15.406;2022-09-12T13:09:44;96961.91;;;26.28;35.85
39843;BME280;25514;46.764;15.406;2022-09-12T13:12:17;96966.47;;;26.12;35.73
39843;BME280;25514;46.764;15.406;2022-09-12T13:14:51;96960.09;;;26.30;37.80
39843;BME280;25514;46.764;15.406;2022-09-12T13:17:19;96956.00;;;26.31;35.64
39843;BME280;25514;46.764;15.406;2022-09-12T13:19:46;96952.47;;;26.44;34.80
39843;BME280;25514;46.764;15.406;2022-09-12T13:22:12;96953.25;;;26.45;35.29
39843;BME280;25514;46.764;15.406;2022-09-12T13:24:45;96950.88;;;26.49;34.96
39843;BME280;25514;46.764;15.406;2022-09-12T13:27:22;96948.53;;;26.53;32.94
39843;BME280;25514;46.764;15.406;2022-09-12T13:29:48;96945.63;;;26.59;34.95
39843;BME280;25514;46.764;15.406;2022-09-12T13:32:14;96941.69;;;26.67;34.87
39843;BME280;25514;46.764;15.406;2022-09-12T13:34:45;96932.97;;;26.71;33.79
39843;BME280;25514;46.764;15.406;2022-09-12T13:37:23;96941.19;;;26.82;34.67
39843;BME280;25514;46.764;15.406;2022-09-12T13:44:48;96928.19;;;27.12;36.25
39843;BME280;25514;46.764;15.406;2022-09-12T13:47:16;96928.69;;;26.97;35.98
39843;BME280;25514;46.764;15.406;2022-09-12T13:49:44;96925.88;;;26.83;34.34
39843;BME280;25514;46.764;15.406;2022-09-12T13:52:20;96919.94;;;26.87;33.40
39843;BME280;25514;46.764;15.406;2022-09-12T13:54:47;96929.69;;;26.99;36.70
39843;BME280;25514;46.764;15.406;2022-09-12T13:57:26;96932.25;;;27.11;36.00
39843;BME280;25514;46.764;15.406;2022-09-12T13:59:53;96929.25;;;27.08;38.59
39843;BME280;25514;46.764;15.406;2022-09-12T14:02:20;96924.28;;;27.28;37.88
39843;BME280;25514;46.764;15.406;2022-09-12T14:04:49;96911.22;;;27.44;36.22
39843;BME280;25514;46.764;15.406;2022-09-12T14:10:21;96917.81;;;26.93;32.57
39843;BME280;25514;46.764;15.406;2022-09-12T14:12:48;96909.19;;;27.04;35.32
39843;BME280;25514;46.764;15.406;2022-09-12T14:15:18;96911.53;;;27.00;34.61
39843;BME280;25514;46.764;15.406;2022-09-12T14:17:50;96912.94;;;26.94;34.30
39843;BME280;25514;46.764;15.406;2022-09-12T14:20:16;96904.31;;;26.92;34.72
39843;BME280;25514;46.764;15.406;2022-09-12T14:22:42;96900.75;;;26.78;35.39
39843;BME280;25514;46.764;15.406;2022-09-12T14:25:17;96899.22;;;26.77;34.67
39843;BME280;25514;46.764;15.406;2022-09-12T14:27:44;96891.03;;;26.65;34.67
39843;BME280;25514;46.764;15.406;2022-09-12T14:32:43;96889.88;;;26.55;36.25
39843;BME280;25514;46.764;15.406;2022-09-12T14:35:25;96894.50;;;26.39;35.69
39843;BME280;25514;46.764;15.406;2022-09-12T14:37:51;96892.41;;;26.26;33.54
39843;BME280;25514;46.764;15.406;2022-09-12T14:40:20;96883.34;;;26.20;34.48
39843;BME280;25514;46.764;15.406;2022-09-12T14:42:46;96881.22;;;26.26;36.08
39843;BME280;25514;46.764;15.406;2022-09-12T14:45:17;96882.94;;;26.29;36.78
39843;BME280;25514;46.764;15.406;2022-09-12T14:47:47;96877.34;;;26.29;35.07
39843;BME280;25514;46.764;15.406;2022-09-12T14:50:18;96876.22;;;26.19;35.64
39843;BME280;25514;46.764;15.406;2022-09-12T14:52:44;96880.75;;;26.22;36.99
39843;BME280;25514;46.764;15.406;2022-09-12T14:56:11;96878.19;;;26.24;38.28
39843;BME280;25514;46.764;15.406;2022-09-12T14:58:23;96878.31;;;25.99;36.15
39843;BME280;25514;46.764;15.406;2022-09-12T15:00:52;96871.88;;;26.05;36.98
39843;BME280;25514;46.764;15.406;2022-09-12T15:03:23;96874.88;;;26.07;36.60
39843;BME280;25514;46.764;15.406;2022-09-12T15:05:50;96871.94;;;26.18;37.26
39843;BME280;25514;46.764;15.406;2022-09-12T15:08:18;96871.41;;;26.19;37.21
39843;BME280;25514;46.764;15.406;2022-09-12T15:10:43;96868.84;;;26.03;36.62
39843;BME280;25514;46.764;15.406;2022-09-12T15:15:35;96870.44;;;25.60;36.48